首页
METAR-TAF:

METAR-TAF

机场 :

汶萊國際機場

文莱, 文莱

纬度: 04-56N, 经度: 114-56E, 海拔: 22米

当前天气观测

该预报发布于34分钟前的11:30 UTC
风速3节,风向东南
温度 26°C
湿度 100%
气压 1009 hPa
能见度10公里或以上
少量云层高于400英尺
少量云层高于1500英尺, 积雨云.
多云层高于15000英尺
小雨,

METAR: WBSB 211130Z 13003KT 9999 -RA FEW004 FEW015CB BKN150 26/26 Q1009 RETS NOSIG

时间: 20:04 (12:04 UTC)

预报

该预报发布于1小时和14分钟前的10:50 UTC
预报有效从21日的 12点(UTC)到 22日的 18点(UTC)
风速6节,风向西转西南
能见度10公里或以上
散云层高于1400英尺
少量云层高于1500英尺, 积雨云.
短暂存在
从 21日的 14点(UTC)到 21日的 18点(UTC)
能見度: 4000
雷暴, 雨
成为
从 21日的 18点(UTC)到 21日的 20点(UTC)
风速3节,风向
少量云层高于400英尺
少量云层高于1500英尺, 积雨云.

TAF: WBSB 211050Z 2112/2218 24006KT 9999 SCT014 FEW015CB TEMPO 2114/2118 4000 TSRA BECMG 2118/2120 18003KT FEW004 FEW015CB

超过4000个机场的气象观测和天气预报(METAR&TAF报告)。

可查询的气象台以黄色和红色小点在地图上表示。

将鼠标移到小点上方,可查看气象台名称。

然后点击查看天气观测和预报。

如需切换地图:点击带黑十字的绿色按钮放大地图;点击带横线的绿色按钮缩小地图;或者点击绿色箭头查看邻近地区的地图。


METAR-TAF: